Time;durP1;ratioP1;P1;durP2;ratioP2;P2;SDS_P1;SDS_P2;PMS_P1;PMS_P2;Temp;Humidity;BMP_temperature;BMP_pressure;BME280_temperature;BME280_humidity;BME280_pressure;Samples;Min_cycle;Max_cycle;Signal;HPM_P1;HPM_P2
2021/11/14 00:00:47;;;;;;;35.20;21.60;;;7.30;99.90;;;;;;5041750;28;20441;-49
2021/11/14 00:03:13;;;;;;;33.37;22.50;;;7.20;99.90;;;;;;5038416;28;20475;-50
2021/11/14 00:05:41;;;;;;;32.00;21.10;;;7.20;99.90;;;;;;5041432;28;20405;-48
2021/11/14 00:08:08;;;;;;;33.53;22.67;;;7.20;99.90;;;;;;5043206;28;20498;-53
2021/11/14 00:10:35;;;;;;;30.50;21.33;;;7.20;99.90;;;;;;5036633;28;20439;-49
2021/11/14 00:13:02;;;;;;;31.07;20.87;;;7.10;99.90;;;;;;5053836;28;20437;-51
2021/11/14 00:15:27;;;;;;;30.27;20.60;;;7.10;99.90;;;;;;5048601;28;20989;-50
2021/11/14 00:17:53;;;;;;;31.20;21.07;;;7.10;99.90;;;;;;5048036;28;20441;-51
2021/11/14 00:20:20;;;;;;;36.43;21.30;;;7.10;99.90;;;;;;5045769;28;20205;-53
2021/11/14 00:22:45;;;;;;;30.93;20.70;;;7.00;99.90;;;;;;5040270;28;20213;-47
2021/11/14 00:25:13;;;;;;;31.40;21.20;;;7.00;99.90;;;;;;5029736;28;20414;-49
2021/11/14 00:27:39;;;;;;;33.13;20.37;;;7.00;99.90;;;;;;5034517;28;20177;-49
2021/11/14 00:30:06;;;;;;;31.80;22.27;;;7.10;99.90;;;;;;5041398;28;20819;-53
2021/11/14 00:32:31;;;;;;;33.57;21.07;;;7.10;99.90;;;;;;5040739;28;20449;-48
2021/11/14 00:34:57;;;;;;;32.83;22.70;;;7.10;99.90;;;;;;5048803;28;21260;-50
2021/11/14 00:37:22;;;;;;;33.63;21.83;;;7.20;99.90;;;;;;5037738;28;20174;-53
2021/11/14 00:39:48;;;;;;;32.93;21.23;;;7.20;99.90;;;;;;5048162;28;20182;-54
2021/11/14 00:42:14;;;;;;;35.10;22.83;;;7.20;99.90;;;;;;5036917;28;20720;-49
2021/11/14 00:44:40;;;;;;;33.33;21.33;;;7.20;99.90;;;;;;5046893;28;20230;-53
2021/11/14 00:47:07;;;;;;;33.60;21.77;;;7.10;99.90;;;;;;5046180;28;21071;-51
2021/11/14 00:49:34;;;;;;;32.10;22.27;;;7.20;99.90;;;;;;5029269;28;20418;-50
2021/11/14 00:52:00;;;;;;;30.10;20.53;;;7.20;99.90;;;;;;5029061;28;20580;-50
2021/11/14 00:54:25;;;;;;;30.07;20.40;;;7.20;99.90;;;;;;5028483;28;20565;-47
2021/11/14 00:56:51;;;;;;;32.53;22.03;;;7.20;99.90;;;;;;5028895;28;20186;-49
2021/11/14 00:59:16;;;;;;;34.00;21.60;;;7.20;99.90;;;;;;5038621;28;20190;-50
2021/11/14 01:01:42;;;;;;;32.63;22.20;;;7.20;99.90;;;;;;5048866;28;20166;-45
2021/11/14 01:04:08;;;;;;;32.13;20.97;;;7.10;99.90;;;;;;5031054;28;20253;-47
2021/11/14 01:06:33;;;;;;;35.33;22.87;;;7.10;99.90;;;;;;5030132;28;20183;-47
2021/11/14 01:08:59;;;;;;;32.90;21.63;;;7.20;99.90;;;;;;5049945;28;20610;-51
2021/11/14 01:11:24;;;;;;;31.10;20.40;;;7.20;99.90;;;;;;5037257;28;20187;-49
2021/11/14 01:13:51;;;;;;;36.80;22.20;;;7.20;99.90;;;;;;5047794;28;20197;-57
2021/11/14 01:16:19;;;;;;;32.80;22.50;;;7.30;99.90;;;;;;5051432;28;20653;-49
2021/11/14 01:18:45;;;;;;;35.90;23.13;;;7.20;99.90;;;;;;5034000;28;20449;-47
2021/11/14 01:21:12;;;;;;;35.33;22.00;;;7.20;99.90;;;;;;5049324;28;20451;-51
2021/11/14 01:23:39;;;;;;;33.87;22.47;;;7.20;99.90;;;;;;5044891;28;20461;-48
2021/11/14 01:26:06;;;;;;;33.40;21.83;;;7.10;99.90;;;;;;5032890;28;20440;-49
2021/11/14 01:28:31;;;;;;;31.60;21.40;;;7.10;99.90;;;;;;5036069;28;20429;-49
2021/11/14 01:30:57;;;;;;;34.67;21.97;;;7.10;99.90;;;;;;5052242;28;20416;-52
2021/11/14 01:33:26;;;;;;;35.87;22.50;;;7.00;99.90;;;;;;5048193;28;20538;-54
2021/11/14 01:35:53;;;;;;;34.97;22.75;;;7.00;99.90;;;;;;5040140;28;20499;-52
2021/11/14 01:38:19;;;;;;;35.27;21.10;;;7.00;99.90;;;;;;5032074;28;20237;-49
2021/11/14 01:41:06;;;;;;;36.90;22.65;;;7.00;99.90;;;;;;5047271;28;20447;-52
2021/11/14 01:43:39;;;;;;;34.78;22.00;;;7.00;99.90;;;;;;5033177;28;20226;-52
2021/11/14 01:46:06;;;;;;;35.47;23.53;;;6.90;99.90;;;;;;5031807;28;20705;-48
2021/11/14 01:48:32;;;;;;;40.20;24.30;;;6.90;99.90;;;;;;5033407;28;20793;-47
2021/11/14 01:50:58;;;;;;;37.80;23.00;;;6.80;99.90;;;;;;5043911;28;20539;-51
2021/11/14 01:53:25;;;;;;;37.80;23.48;;;6.70;99.90;;;;;;5032347;28;20487;-50
2021/11/14 01:55:52;;;;;;;37.07;23.60;;;6.70;99.90;;;;;;5036258;28;20182;-50
2021/11/14 01:58:21;;;;;;;35.25;22.17;;;6.70;99.90;;;;;;5047755;28;20439;-49
2021/11/14 02:00:59;;;;;;;30.23;20.60;;;6.70;99.90;;;;;;5040659;28;20214;-50
2021/11/14 02:03:28;;;;;;;36.85;23.13;;;6.60;99.90;;;;;;5051014;28;20210;-50
2021/11/14 02:05:53;;;;;;;39.13;23.38;;;6.60;99.90;;;;;;5045654;28;20664;-49
2021/11/14 02:08:20;;;;;;;37.40;24.30;;;6.60;99.90;;;;;;5043126;28;20178;-56
2021/11/14 02:10:46;;;;;;;39.88;24.10;;;6.60;99.90;;;;;;5047313;28;20183;-50
2021/11/14 02:13:13;;;;;;;37.70;24.27;;;6.60;99.90;;;;;;5051092;28;20194;-47
2021/11/14 02:15:40;;;;;;;40.90;23.75;;;6.50;99.90;;;;;;5045283;28;20190;-51
2021/11/14 02:18:08;;;;;;;37.03;23.02;;;6.50;99.90;;;;;;5043470;28;20186;-51
2021/11/14 02:20:35;;;;;;;39.58;23.25;;;6.50;99.90;;;;;;5050619;28;20182;-48
2021/11/14 02:23:01;;;;;;;37.67;24.52;;;6.60;99.90;;;;;;5043663;28;20673;-48
2021/11/14 02:25:27;;;;;;;37.30;23.37;;;6.60;99.90;;;;;;5053328;28;20525;-49
2021/11/14 02:27:54;;;;;;;36.63;23.10;;;6.50;99.90;;;;;;5048060;28;20438;-49
2021/11/14 02:30:22;;;;;;;36.40;22.92;;;6.50;99.90;;;;;;5042602;28;20279;-49
2021/11/14 02:32:49;;;;;;;42.70;26.38;;;6.50;99.90;;;;;;5044331;28;20175;-48
2021/11/14 02:35:15;;;;;;;39.85;23.80;;;6.50;99.90;;;;;;5039741;28;20203;-50
2021/11/14 02:37:41;;;;;;;38.83;24.13;;;6.50;99.90;;;;;;5046461;28;20179;-49
2021/11/14 02:40:09;;;;;;;36.53;23.90;;;6.50;99.90;;;;;;5052416;28;20261;-50
2021/11/14 02:42:35;;;;;;;38.67;25.27;;;6.50;99.90;;;;;;5039466;28;20212;-51
2021/11/14 02:45:03;;;;;;;38.55;24.40;;;6.60;99.90;;;;;;5051590;28;20182;-49
2021/11/14 02:47:28;;;;;;;40.07;23.90;;;6.50;99.90;;;;;;5052144;28;20230;-49
2021/11/14 02:49:54;;;;;;;41.67;24.00;;;6.50;99.90;;;;;;5052227;28;20419;-55
2021/11/14 02:52:20;;;;;;;38.07;24.47;;;6.60;99.90;;;;;;5045619;28;20365;-53
2021/11/14 02:54:46;;;;;;;40.03;23.90;;;6.60;99.90;;;;;;5042293;28;20186;-47
2021/11/14 02:57:11;;;;;;;40.53;23.30;;;6.50;99.90;;;;;;5041274;28;20194;-50
2021/11/14 02:59:37;;;;;;;40.20;23.13;;;6.50;99.90;;;;;;5051436;28;20921;-50
2021/11/14 03:02:03;;;;;;;43.33;24.30;;;6.50;99.90;;;;;;5048403;28;20182;-46
2021/11/14 03:04:30;;;;;;;38.33;23.87;;;6.50;99.90;;;;;;5040058;28;20609;-54
2021/11/14 03:06:57;;;;;;;41.20;25.60;;;6.50;99.90;;;;;;5032128;28;20472;-48
2021/11/14 03:09:24;;;;;;;40.73;24.43;;;6.60;99.90;;;;;;5030618;28;20409;-50
2021/11/14 03:11:51;;;;;;;37.20;22.87;;;6.60;99.90;;;;;;5030864;28;20492;-49
2021/11/14 03:14:17;;;;;;;39.83;25.17;;;6.60;99.90;;;;;;5031005;28;20421;-50
2021/11/14 03:16:42;;;;;;;38.13;24.17;;;6.60;99.90;;;;;;5031677;28;20189;-48
2021/11/14 03:19:08;;;;;;;40.10;24.27;;;6.60;99.90;;;;;;5048111;28;20209;-48
2021/11/14 03:21:34;;;;;;;38.58;23.67;;;6.60;99.90;;;;;;5040050;28;20569;-47
2021/11/14 03:24:00;;;;;;;40.73;24.87;;;6.60;99.90;;;;;;5043762;28;20262;-48
2021/11/14 03:26:27;;;;;;;42.03;24.47;;;6.60;99.90;;;;;;5039188;28;20181;-50
2021/11/14 03:28:53;;;;;;;41.20;24.67;;;6.60;99.90;;;;;;5040667;28;20648;-47
2021/11/14 03:31:18;;;;;;;39.23;23.80;;;6.50;99.90;;;;;;5035177;28;20186;-47
2021/11/14 03:33:44;;;;;;;41.20;24.10;;;6.50;99.90;;;;;;5041028;28;20436;-49
2021/11/14 03:36:15;;;;;;;41.15;24.60;;;6.40;99.90;;;;;;5030730;28;20187;-49
2021/11/14 03:38:47;;;;;;;43.47;23.25;;;6.40;99.90;;;;;;5047127;28;20181;-51
2021/11/14 03:41:23;;;;;;;38.60;22.88;;;6.40;99.90;;;;;;5038342;28;20188;-50
2021/11/14 03:43:50;;;;;;;38.78;22.63;;;6.50;99.90;;;;;;5048549;28;20209;-47
2021/11/14 03:46:17;;;;;;;38.33;24.55;;;6.50;99.90;;;;;;5037986;28;20304;-48
2021/11/14 03:48:45;;;;;;;43.70;24.70;;;6.50;99.90;;;;;;5044100;28;20293;-47
2021/11/14 03:51:11;;;;;;;41.30;23.38;;;6.40;99.90;;;;;;5030411;28;20240;-50
2021/11/14 03:53:37;;;;;;;39.53;24.55;;;6.40;99.90;;;;;;5041326;28;20183;-51
2021/11/14 03:56:04;;;;;;;39.57;24.47;;;6.40;99.90;;;;;;5041467;28;20190;-49
2021/11/14 03:58:30;;;;;;;42.03;24.23;;;6.40;99.90;;;;;;5041271;28;20618;-49
2021/11/14 04:00:59;;;;;;;40.15;24.55;;;6.50;99.90;;;;;;5037402;28;20186;-52
2021/11/14 04:03:26;;;;;;;40.63;24.30;;;6.50;99.90;;;;;;5033800;28;20221;-47
2021/11/14 04:05:52;;;;;;;42.60;26.10;;;6.50;99.90;;;;;;5045931;28;20726;-51
2021/11/14 04:08:21;;;;;;;41.00;24.27;;;6.50;99.90;;;;;;5049077;28;20197;-48
2021/11/14 04:10:48;;;;;;;37.95;24.17;;;6.60;99.90;;;;;;5049283;28;20186;-51
2021/11/14 04:13:15;;;;;;;43.30;25.63;;;6.60;99.90;;;;;;5043447;28;20556;-46
2021/11/14 04:15:41;;;;;;;40.35;21.58;;;6.60;99.90;;;;;;5029567;28;20186;-52
2021/11/14 04:18:07;;;;;;;41.00;24.00;;;6.50;99.90;;;;;;5032310;28;20531;-54
2021/11/14 04:20:36;;;;;;;42.50;24.48;;;6.60;99.90;;;;;;5038346;28;20431;-49
2021/11/14 04:23:03;;;;;;;36.60;23.50;;;6.60;99.90;;;;;;5042809;28;20285;-47
2021/11/14 04:25:29;;;;;;;39.65;23.90;;;6.50;99.90;;;;;;5043403;28;20520;-49
2021/11/14 04:27:57;;;;;;;35.80;23.77;;;6.50;99.90;;;;;;5033495;28;20270;-51
2021/11/14 04:30:23;;;;;;;39.78;23.40;;;6.50;99.90;;;;;;5041886;28;20273;-49
2021/11/14 04:32:48;;;;;;;39.13;22.77;;;6.40;99.90;;;;;;5033446;28;20633;-48
2021/11/14 04:35:14;;;;;;;39.53;23.87;;;6.40;99.90;;;;;;5047812;28;20435;-48
2021/11/14 04:37:40;;;;;;;34.27;20.93;;;6.40;99.90;;;;;;5042061;28;20379;-49
2021/11/14 04:40:08;;;;;;;36.17;21.60;;;6.30;99.90;;;;;;5036173;28;20436;-47
2021/11/14 04:42:34;;;;;;;39.93;23.50;;;6.20;99.90;;;;;;5040875;28;20908;-51
2021/11/14 04:45:00;;;;;;;40.42;22.30;;;6.20;99.90;;;;;;5049387;28;20447;-53
2021/11/14 04:47:26;;;;;;;37.83;22.43;;;6.10;99.90;;;;;;5033121;28;20187;-47
2021/11/14 04:49:51;;;;;;;36.90;24.30;;;6.10;99.90;;;;;;5035057;28;20381;-50
2021/11/14 04:52:17;;;;;;;32.73;22.97;;;6.10;99.90;;;;;;5037822;28;20237;-51
2021/11/14 04:54:42;;;;;;;37.27;22.70;;;6.10;99.90;;;;;;5050647;28;20200;-54
2021/11/14 04:57:08;;;;;;;41.90;23.40;;;6.00;99.90;;;;;;5056594;28;20185;-48
2021/11/14 04:59:34;;;;;;;38.17;21.80;;;6.00;99.90;;;;;;5038676;28;20190;-50
2021/11/14 05:01:59;;;;;;;36.63;22.57;;;6.00;99.90;;;;;;5050448;28;20312;-47
2021/11/14 05:04:26;;;;;;;36.00;21.87;;;6.00;99.90;;;;;;5039188;28;20214;-49
2021/11/14 05:06:51;;;;;;;39.60;23.50;;;6.00;99.90;;;;;;5037666;28;20187;-51
2021/11/14 05:09:17;;;;;;;37.07;23.07;;;5.90;99.90;;;;;;5033510;28;20183;-49
2021/11/14 05:11:42;;;;;;;34.20;22.17;;;5.90;99.90;;;;;;5044354;28;20186;-48
2021/11/14 05:14:08;;;;;;;37.27;23.37;;;5.90;99.90;;;;;;5052609;28;20182;-46
2021/11/14 05:16:34;;;;;;;35.27;21.90;;;5.80;99.90;;;;;;5050452;28;20194;-54
2021/11/14 05:18:59;;;;;;;36.63;21.20;;;5.80;99.90;;;;;;5040112;28;20194;-50
2021/11/14 05:21:25;;;;;;;34.37;21.70;;;5.80;99.90;;;;;;5046073;28;20575;-50
2021/11/14 05:23:51;;;;;;;37.23;23.00;;;5.70;99.90;;;;;;5046923;28;20203;-49
2021/11/14 05:26:16;;;;;;;36.70;22.40;;;5.70;99.90;;;;;;5040789;28;20550;-48
2021/11/14 05:28:42;;;;;;;37.93;22.17;;;5.70;99.90;;;;;;5042119;28;20300;-50
2021/11/14 05:31:08;;;;;;;38.13;21.80;;;5.60;99.90;;;;;;5050233;28;20572;-47
2021/11/14 05:33:34;;;;;;;38.67;24.40;;;5.60;99.90;;;;;;5036344;28;20190;-52
2021/11/14 05:36:00;;;;;;;38.42;22.27;;;5.60;99.90;;;;;;5049518;28;20437;-51
2021/11/14 05:38:25;;;;;;;37.53;22.73;;;5.60;99.90;;;;;;5048414;28;20187;-49
2021/11/14 05:40:51;;;;;;;35.30;20.60;;;5.60;99.90;;;;;;5039550;28;20178;-50
2021/11/14 05:43:17;;;;;;;40.13;22.53;;;5.50;99.90;;;;;;5049514;28;20214;-49
2021/11/14 05:45:43;;;;;;;39.33;22.40;;;5.50;99.90;;;;;;5047510;28;20182;-48
2021/11/14 05:48:10;;;;;;;37.15;21.63;;;5.50;99.90;;;;;;5050946;28;20187;-50
2021/11/14 05:50:36;;;;;;;35.67;21.70;;;5.40;99.90;;;;;;5037183;28;20179;-51
2021/11/14 05:53:04;;;;;;;34.50;20.83;;;5.30;99.90;;;;;;5045798;28;20197;-52
2021/11/14 05:55:29;;;;;;;35.42;22.17;;;5.30;99.90;;;;;;5050480;28;20189;-50
2021/11/14 05:58:08;;;;;;;37.20;21.60;;;5.30;99.90;;;;;;5049391;28;20194;-50
2021/11/14 06:05:48;;;;;;;36.72;21.40;;;5.10;99.90;;;;;;5041068;28;20261;-50
2021/11/14 06:08:20;;;;;;;33.90;20.00;;;5.00;99.90;;;;;;5050220;28;20895;-47
2021/11/14 06:10:49;;;;;;;32.83;20.98;;;5.00;99.90;;;;;;5048894;28;20174;-46
2021/11/14 06:13:15;;;;;;;39.53;22.58;;;4.90;99.90;;;;;;5037763;28;20187;-53
2021/11/14 06:15:40;;;;;;;35.80;20.17;;;4.90;99.90;;;;;;5047151;28;20186;-51
2021/11/14 06:18:06;;;;;;;33.80;20.00;;;4.90;99.90;;;;;;5038418;28;20228;-47
2021/11/14 06:20:31;;;;;;;37.17;21.93;;;4.80;99.90;;;;;;5033646;28;20187;-48
2021/11/14 06:22:57;;;;;;;37.50;21.43;;;4.80;99.90;;;;;;5049297;28;20212;-49
2021/11/14 06:25:23;;;;;;;39.10;21.87;;;4.70;99.90;;;;;;5049900;28;20779;-50
2021/11/14 06:27:48;;;;;;;36.97;22.20;;;4.70;99.90;;;;;;5052926;28;20196;-47
2021/11/14 06:30:15;;;;;;;40.03;21.80;;;4.70;99.90;;;;;;5050031;28;20235;-47
2021/11/14 06:32:41;;;;;;;35.40;21.38;;;4.70;99.90;;;;;;5048977;28;20184;-47
2021/11/14 06:35:07;;;;;;;40.10;22.23;;;4.70;99.90;;;;;;5049409;28;20710;-50
2021/11/14 06:37:33;;;;;;;32.35;20.48;;;4.70;99.90;;;;;;5044787;28;20572;-50
2021/11/14 06:39:59;;;;;;;33.70;20.07;;;4.60;99.90;;;;;;5049362;28;20178;-50
2021/11/14 06:42:24;;;;;;;36.83;23.17;;;4.60;99.90;;;;;;5041686;28;20558;-50
2021/11/14 06:44:50;;;;;;;40.23;22.97;;;4.50;99.90;;;;;;5049994;28;20829;-52
2021/11/14 06:47:16;;;;;;;37.73;22.53;;;4.50;99.90;;;;;;5041207;28;20186;-47
2021/11/14 06:49:42;;;;;;;38.00;21.40;;;4.50;99.90;;;;;;5049838;28;20500;-49
2021/11/14 06:52:08;;;;;;;37.90;22.23;;;4.50;99.90;;;;;;5031194;28;20488;-48
2021/11/14 06:54:34;;;;;;;40.85;22.08;;;4.50;99.90;;;;;;5030800;28;20246;-47
2021/11/14 06:57:00;;;;;;;34.73;21.43;;;4.50;99.90;;;;;;5044041;28;20725;-48
2021/11/14 06:59:25;;;;;;;34.53;21.13;;;4.50;99.90;;;;;;5043390;28;20437;-49
2021/11/14 07:01:51;;;;;;;36.07;20.47;;;4.50;99.90;;;;;;5044719;28;20210;-51
2021/11/14 07:04:17;;;;;;;38.70;23.33;;;4.50;99.90;;;;;;5042565;28;20341;-50
2021/11/14 07:06:43;;;;;;;36.27;19.93;;;4.50;99.90;;;;;;5036251;28;21283;-50
2021/11/14 07:09:09;;;;;;;37.37;21.93;;;4.50;99.90;;;;;;5042968;28;20459;-47
2021/11/14 07:11:35;;;;;;;37.13;22.83;;;4.50;99.90;;;;;;5047412;28;20798;-49
2021/11/14 07:14:02;;;;;;;34.70;21.15;;;4.60;99.90;;;;;;5040488;28;20186;-52
2021/11/14 07:16:28;;;;;;;49.47;21.77;;;4.60;99.90;;;;;;5022217;28;20187;-47
2021/11/14 07:18:54;;;;;;;34.95;21.73;;;4.60;99.90;;;;;;5027070;28;20202;-50
2021/11/14 07:21:21;;;;;;;42.60;23.48;;;4.60;99.90;;;;;;5027972;28;20195;-49
2021/11/14 07:23:46;;;;;;;38.55;23.08;;;4.70;99.90;;;;;;5028245;28;20293;-49
2021/11/14 07:26:12;;;;;;;38.90;22.70;;;4.70;99.90;;;;;;5035180;28;20278;-50
2021/11/14 07:28:38;;;;;;;40.90;24.80;;;4.80;99.90;;;;;;5034107;28;20200;-50
2021/11/14 07:31:03;;;;;;;39.57;25.40;;;4.90;99.90;;;;;;5038696;28;20205;-49
2021/11/14 07:33:29;;;;;;;39.77;26.80;;;4.90;99.90;;;;;;5031459;28;20914;-52
2021/11/14 07:35:55;;;;;;;34.57;22.63;;;5.00;99.90;;;;;;5039848;28;20204;-48
2021/11/14 07:38:20;;;;;;;42.03;22.93;;;5.00;99.90;;;;;;5024492;28;20208;-48
2021/11/14 07:40:46;;;;;;;38.93;22.93;;;5.10;99.90;;;;;;5039558;28;20203;-50
2021/11/14 07:43:12;;;;;;;32.40;22.40;;;5.20;99.90;;;;;;5027938;28;20469;-49
2021/11/14 07:45:38;;;;;;;36.30;22.27;;;5.30;99.90;;;;;;5034903;28;20648;-46
2021/11/14 07:48:03;;;;;;;38.50;22.53;;;5.40;99.90;;;;;;5034335;28;20260;-46
2021/11/14 07:50:30;;;;;;;39.63;22.93;;;5.60;99.90;;;;;;5028749;28;20433;-50
2021/11/14 07:52:58;;;;;;;41.20;22.48;;;5.80;99.90;;;;;;5031398;28;20537;-46
2021/11/14 07:55:24;;;;;;;37.72;22.58;;;6.10;99.90;;;;;;5031802;28;20204;-51
2021/11/14 07:57:50;;;;;;;38.50;22.30;;;6.50;99.90;;;;;;5036166;28;20189;-46
2021/11/14 08:00:19;;;;;;;40.20;24.53;;;6.70;99.90;;;;;;5040770;28;20190;-45
2021/11/14 08:02:45;;;;;;;33.20;21.20;;;7.20;99.90;;;;;;5031050;28;20190;-48
2021/11/14 08:05:12;;;;;;;30.30;21.03;;;7.70;99.90;;;;;;5034575;28;20454;-46
2021/11/14 08:07:38;;;;;;;27.97;19.10;;;7.90;99.90;;;;;;5039258;28;20451;-50
2021/11/14 08:10:06;;;;;;;24.80;17.30;;;8.00;99.90;;;;;;5030573;28;20434;-47
2021/11/14 08:12:32;;;;;;;28.00;19.70;;;8.10;99.90;;;;;;5041510;28;20436;-52
2021/11/14 08:14:57;;;;;;;28.23;19.60;;;8.30;99.90;;;;;;5045171;28;20444;-46
2021/11/14 08:17:23;;;;;;;26.07;18.30;;;8.40;99.90;;;;;;5051452;28;20470;-48
2021/11/14 08:19:49;;;;;;;22.17;16.73;;;8.40;99.90;;;;;;5038910;28;20205;-51
2021/11/14 08:22:15;;;;;;;23.93;17.00;;;8.50;99.90;;;;;;5035685;28;20236;-48
2021/11/14 08:24:41;;;;;;;24.70;19.20;;;8.60;99.90;;;;;;5036300;28;20225;-50
2021/11/14 08:27:07;;;;;;;25.30;17.10;;;8.70;99.90;;;;;;5033952;28;20838;-50
2021/11/14 08:29:32;;;;;;;24.37;18.40;;;8.70;99.90;;;;;;5036047;28;20179;-51
2021/11/14 08:31:58;;;;;;;24.70;18.03;;;8.50;99.90;;;;;;5045785;28;20185;-48
2021/11/14 08:34:24;;;;;;;23.90;17.63;;;8.50;99.90;;;;;;5045070;28;20533;-49
2021/11/14 08:36:49;;;;;;;25.53;18.93;;;8.60;99.90;;;;;;5048258;28;20182;-53
2021/11/14 08:39:15;;;;;;;23.20;17.80;;;8.60;99.90;;;;;;5040378;28;20195;-48
2021/11/14 08:41:41;;;;;;;24.63;18.10;;;8.70;99.90;;;;;;5042431;28;20190;-46
2021/11/14 08:44:06;;;;;;;27.83;18.47;;;8.70;99.90;;;;;;5033139;28;20237;-51
2021/11/14 08:46:34;;;;;;;26.70;19.30;;;8.90;99.90;;;;;;5047291;28;20416;-47
2021/11/14 08:49:01;;;;;;;24.90;18.40;;;8.90;99.90;;;;;;5040057;28;20182;-50
2021/11/14 08:51:26;;;;;;;24.43;17.43;;;8.90;99.90;;;;;;5034874;28;20556;-47
2021/11/14 08:53:58;;;;;;;26.80;18.57;;;9.00;99.90;;;;;;5035370;28;20999;-51
2021/11/14 08:56:31;;;;;;;25.60;18.17;;;9.00;99.90;;;;;;5029556;28;20190;-49
2021/11/14 08:58:57;;;;;;;23.50;17.53;;;9.00;99.90;;;;;;5038748;28;20436;-49
2021/11/14 09:01:22;;;;;;;26.53;18.10;;;8.90;99.90;;;;;;5045015;28;20432;-50
2021/11/14 09:03:48;;;;;;;26.37;19.23;;;8.80;99.90;;;;;;5027411;28;20206;-47
2021/11/14 09:06:14;;;;;;;25.27;18.30;;;8.90;99.90;;;;;;5035751;28;21013;-47
2021/11/14 09:08:40;;;;;;;24.93;18.17;;;9.00;99.90;;;;;;5048283;28;20899;-48
2021/11/14 09:11:05;;;;;;;27.50;20.40;;;9.10;99.90;;;;;;5046578;28;20467;-46
2021/11/14 09:13:31;;;;;;;27.47;19.30;;;9.40;99.90;;;;;;5034463;28;20171;-50
2021/11/14 09:15:58;;;;;;;26.30;19.73;;;9.60;99.90;;;;;;5047632;28;20193;-51
2021/11/14 09:18:25;;;;;;;28.90;19.27;;;9.90;99.90;;;;;;5034345;28;20179;-53
2021/11/14 09:20:50;;;;;;;25.80;19.47;;;10.10;99.90;;;;;;5047745;28;20436;-49
2021/11/14 09:23:16;;;;;;;28.40;18.10;;;10.30;99.90;;;;;;5040611;28;20461;-48
2021/11/14 09:25:43;;;;;;;24.73;18.33;;;10.30;99.90;;;;;;5028787;28;20171;-49
2021/11/14 09:28:10;;;;;;;26.10;19.30;;;10.40;99.90;;;;;;5048585;28;20451;-49
2021/11/14 09:30:36;;;;;;;22.40;17.73;;;10.60;99.90;;;;;;5054464;28;20495;-51
2021/11/14 09:33:03;;;;;;;24.67;19.13;;;10.50;99.90;;;;;;5057279;28;20436;-53
2021/11/14 09:35:29;;;;;;;27.53;19.40;;;10.40;99.90;;;;;;5051507;28;20494;-49
2021/11/14 09:37:54;;;;;;;24.77;18.43;;;10.40;99.90;;;;;;5043418;28;20428;-50
2021/11/14 09:40:20;;;;;;;24.53;17.90;;;10.40;99.90;;;;;;5048320;28;20455;-52
2021/11/14 09:42:45;;;;;;;23.60;18.33;;;10.50;99.90;;;;;;5037355;28;20225;-51
2021/11/14 09:45:11;;;;;;;23.40;18.50;;;10.30;99.90;;;;;;5030519;28;20179;-50
2021/11/14 09:47:38;;;;;;;25.57;18.93;;;10.20;99.90;;;;;;5044128;28;20265;-49
2021/11/14 09:50:05;;;;;;;26.33;19.07;;;10.10;99.90;;;;;;5050695;28;20178;-49
2021/11/14 09:52:30;;;;;;;24.60;19.10;;;10.00;99.90;;;;;;5040701;28;20868;-48
2021/11/14 09:54:58;;;;;;;23.70;17.77;;;10.20;99.90;;;;;;5036208;28;20414;-50
2021/11/14 09:57:24;;;;;;;23.17;17.27;;;10.30;99.90;;;;;;5030476;28;20543;-49
2021/11/14 09:59:49;;;;;;;24.80;19.30;;;10.40;99.90;;;;;;5030424;28;20425;-52
2021/11/14 10:02:18;;;;;;;22.90;18.33;;;10.60;99.90;;;;;;5059967;28;20218;-49
2021/11/14 10:04:44;;;;;;;25.07;18.67;;;10.60;99.90;;;;;;5051097;28;20305;-52
2021/11/14 10:07:16;;;;;;;27.83;19.97;;;10.60;99.90;;;;;;5043263;28;20536;-51
2021/11/14 10:09:46;;;;;;;22.60;17.70;;;10.60;99.90;;;;;;5031821;28;20621;-51
2021/11/14 10:12:16;;;;;;;22.83;17.10;;;10.70;99.90;;;;;;5044379;28;20422;-51
2021/11/14 10:14:43;;;;;;;24.87;18.90;;;10.80;99.90;;;;;;5043810;28;20413;-52
2021/11/14 10:17:19;;;;;;;23.47;18.50;;;10.80;99.90;;;;;;5044297;28;20997;-52
2021/11/14 10:19:55;;;;;;;26.87;18.70;;;11.00;99.90;;;;;;5030446;28;20409;-51
2021/11/14 10:22:21;;;;;;;23.60;18.27;;;10.90;99.90;;;;;;5053577;28;20444;-50
2021/11/14 10:24:47;;;;;;;25.40;18.57;;;10.90;99.90;;;;;;5060998;28;20486;-51
2021/11/14 10:27:15;;;;;;;24.40;18.60;;;10.90;99.90;;;;;;5044378;28;20202;-49
2021/11/14 10:29:49;;;;;;;24.27;17.57;;;10.90;99.90;;;;;;5050593;28;20416;-50
2021/11/14 10:32:16;;;;;;;25.37;18.63;;;10.90;99.90;;;;;;5058321;28;20461;-52
2021/11/14 10:34:49;;;;;;;24.13;18.53;;;10.80;99.90;;;;;;5049683;28;20429;-48
2021/11/14 10:37:18;;;;;;;25.07;18.70;;;10.90;99.90;;;;;;5050435;28;20412;-51
2021/11/14 10:39:44;;;;;;;24.60;18.53;;;10.80;99.90;;;;;;5035977;28;20438;-49
2021/11/14 10:42:18;;;;;;;23.83;17.83;;;10.80;99.90;;;;;;5050272;28;20417;-52
2021/11/14 10:44:53;;;;;;;25.40;18.77;;;10.80;99.90;;;;;;5040889;28;20197;-49
2021/11/14 10:47:23;;;;;;;23.80;18.73;;;10.90;99.90;;;;;;5038682;28;20889;-52
2021/11/14 10:49:55;;;;;;;23.63;17.70;;;11.10;99.90;;;;;;5047397;28;20428;-51
2021/11/14 10:52:21;;;;;;;23.03;18.50;;;11.30;99.90;;;;;;5038800;28;20467;-48
2021/11/14 10:55:09;;;;;;;25.40;19.43;;;11.50;99.90;;;;;;5048887;28;20535;-53
2021/11/14 10:57:37;;;;;;;21.70;18.10;;;11.50;99.90;;;;;;5030752;28;20425;-49
2021/11/14 11:00:12;;;;;;;21.97;17.60;;;11.60;99.90;;;;;;5035900;28;20437;-52
2021/11/14 11:02:41;;;;;;;22.77;18.90;;;11.80;99.90;;;;;;5040288;28;20471;-52
2021/11/14 11:05:15;;;;;;;24.57;19.80;;;12.00;99.90;;;;;;5043141;28;20432;-51
2021/11/14 11:07:50;;;;;;;24.40;19.33;;;12.00;99.90;;;;;;5039361;28;20547;-51
2021/11/14 11:10:16;;;;;;;24.53;19.90;;;11.80;99.90;;;;;;5045277;28;20439;-50
2021/11/14 11:12:42;;;;;;;23.50;18.43;;;11.60;99.90;;;;;;5047697;28;20756;-50
2021/11/14 11:15:10;;;;;;;26.57;20.20;;;11.40;99.90;;;;;;5046203;28;20533;-49
2021/11/14 11:17:49;;;;;;;25.27;19.90;;;11.40;99.90;;;;;;5048239;28;20421;-48
2021/11/14 11:20:23;;;;;;;23.90;19.73;;;11.20;99.90;;;;;;5045693;28;20432;-51
2021/11/14 11:22:54;;;;;;;26.97;20.97;;;11.20;99.90;;;;;;5048550;28;20756;-55
2021/11/14 11:25:39;;;;;;;26.87;20.30;;;11.20;99.90;;;;;;5046202;28;20420;-53
2021/11/14 11:28:07;;;;;;;29.17;21.70;;;11.20;99.90;;;;;;5046406;28;20478;-51
2021/11/14 11:30:39;;;;;;;27.90;21.30;;;11.00;99.90;;;;;;5044625;28;20444;-52
2021/11/14 11:33:04;;;;;;;25.53;21.20;;;11.10;99.90;;;;;;5040234;28;20453;-51
2021/11/14 11:35:31;;;;;;;28.00;21.70;;;11.10;99.90;;;;;;5034391;28;20426;-54
2021/11/14 11:37:57;;;;;;;28.23;21.73;;;11.00;99.90;;;;;;5028639;28;20179;-49
2021/11/14 11:40:23;;;;;;;26.60;19.73;;;11.20;99.90;;;;;;5034268;28;20451;-54
2021/11/14 11:42:49;;;;;;;26.77;20.20;;;11.30;99.90;;;;;;5030234;28;20197;-51
2021/11/14 11:45:24;;;;;;;26.00;20.47;;;11.30;99.90;;;;;;5033019;28;20417;-54
2021/11/14 11:47:51;;;;;;;27.13;20.23;;;11.30;99.90;;;;;;5027844;28;20175;-51
2021/11/14 11:50:16;;;;;;;27.60;20.00;;;11.30;99.90;;;;;;5028543;28;20429;-54
2021/11/14 11:52:43;;;;;;;25.80;19.30;;;11.40;99.90;;;;;;5027500;28;20457;-51
2021/11/14 11:55:34;;;;;;;23.73;18.60;;;11.40;99.90;;;;;;5029141;28;20197;-52
2021/11/14 11:58:10;;;;;;;24.33;19.10;;;11.40;99.90;;;;;;5029343;28;20524;-49
2021/11/14 12:00:55;;;;;;;23.57;18.60;;;11.30;99.90;;;;;;5029273;28;20413;-49
2021/11/14 12:03:29;;;;;;;24.03;18.83;;;11.20;99.90;;;;;;5032704;28;20471;-53
2021/11/14 12:05:56;;;;;;;26.37;18.50;;;11.20;99.90;;;;;;5048770;28;20412;-51
2021/11/14 12:08:37;;;;;;;25.57;18.97;;;11.20;99.90;;;;;;5047476;28;20903;-49
2021/11/14 12:11:03;;;;;;;24.83;19.40;;;11.20;99.90;;;;;;5037340;28;20425;-53
2021/11/14 12:13:30;;;;;;;25.53;18.60;;;11.20;99.90;;;;;;5032034;28;21020;-53
2021/11/14 12:15:59;;;;;;;24.27;18.70;;;11.10;99.90;;;;;;5057186;28;20193;-52
2021/11/14 12:18:24;;;;;;;27.67;20.43;;;11.10;99.90;;;;;;5047149;28;20934;-48
2021/11/14 12:20:53;;;;;;;25.17;19.57;;;11.10;99.90;;;;;;5048914;28;20497;-48
2021/11/14 12:23:27;;;;;;;24.80;18.97;;;11.10;99.90;;;;;;5049364;28;20263;-56
2021/11/14 12:25:55;;;;;;;21.47;17.40;;;11.00;99.90;;;;;;5041749;28;20427;-50
2021/11/14 12:28:26;;;;;;;23.40;17.53;;;11.00;99.90;;;;;;5028339;28;20430;-52
2021/11/14 12:31:07;;;;;;;25.20;19.33;;;11.00;99.90;;;;;;5053501;28;20486;-53
2021/11/14 12:33:42;;;;;;;28.00;19.50;;;10.90;99.90;;;;;;5042782;28;20424;-48
2021/11/14 12:36:46;;;;;;;23.10;17.57;;;10.90;99.90;;;;;;5040835;28;20471;-51
2021/11/14 12:39:17;;;;;;;21.53;15.87;;;10.80;99.90;;;;;;5043127;28;20433;-51